Map

Track Data

SID SEASON NUMBER BASIN SUBBASIN NAME ISO_TIME NATURE LAT LON WMO_WIND WMO_PRES WMO_AGENCY TRACK_TYPE DIST2LAND LANDFALL IFLAG USA_AGENCY USA_ATCF_ID USA_LAT USA_LON USA_RECORD USA_STATUS USA_WIND USA_PRES USA_SSHS USA_R34_NE USA_R34_SE USA_R34_SW USA_R34_NW USA_R50_NE USA_R50_SE USA_R50_SW USA_R50_NW USA_R64_NE USA_R64_SE USA_R64_SW USA_R64_NW USA_POCI USA_ROCI USA_RMW USA_EYE TOKYO_LAT TOKYO_LON TOKYO_GRADE TOKYO_WIND TOKYO_PRES TOKYO_R50_DIR TOKYO_R50_LONG TOKYO_R50_SHORT TOKYO_R30_DIR TOKYO_R30_LONG TOKYO_R30_SHORT TOKYO_LAND CMA_LAT CMA_LON CMA_CAT CMA_WIND CMA_PRES HKO_LAT HKO_LON HKO_CAT HKO_WIND HKO_PRES NEWDELHI_LAT NEWDELHI_LON NEWDELHI_GRADE NEWDELHI_WIND NEWDELHI_PRES NEWDELHI_CI NEWDELHI_DP NEWDELHI_POCI REUNION_LAT REUNION_LON REUNION_TYPE REUNION_WIND REUNION_PRES REUNION_TNUM REUNION_CI REUNION_RMW REUNION_R34_NE REUNION_R34_SE REUNION_R34_SW REUNION_R34_NW REUNION_R50_NE REUNION_R50_SE REUNION_R50_SW REUNION_R50_NW REUNION_R64_NE REUNION_R64_SE REUNION_R64_SW REUNION_R64_NW BOM_LAT BOM_LON BOM_TYPE BOM_WIND BOM_PRES BOM_TNUM BOM_CI BOM_RMW BOM_R34_NE BOM_R34_SE BOM_R34_SW BOM_R34_NW BOM_R50_NE BOM_R50_SE BOM_R50_SW BOM_R50_NW BOM_R64_NE BOM_R64_SE BOM_R64_SW BOM_R64_NW BOM_ROCI BOM_POCI BOM_EYE BOM_POS_METHOD BOM_PRES_METHOD NADI_LAT NADI_LON NADI_CAT NADI_WIND NADI_PRES WELLINGTON_LAT WELLINGTON_LON WELLINGTON_WIND WELLINGTON_PRES DS824_LAT DS824_LON DS824_STAGE DS824_WIND DS824_PRES TD9636_LAT TD9636_LON TD9636_STAGE TD9636_WIND TD9636_PRES TD9635_LAT TD9635_LON TD9635_WIND TD9635_PRES TD9635_ROCI NEUMANN_LAT NEUMANN_LON NEUMANN_CLASS NEUMANN_WIND NEUMANN_PRES MLC_LAT MLC_LON MLC_CLASS MLC_WIND MLC_PRES USA_GUST BOM_GUST BOM_GUST_PER REUNION_GUST REUNION_GUST_PER USA_SEAHGT USA_SEARAD_NE USA_SEARAD_SE USA_SEARAD_SW USA_SEARAD_NW STORM_SPEED STORM_DIR
1931282N11114 1931 44 WP MM NOT_NAMED 1931-10-09 10:00:00 NR 11.0000 114.300 main 422 422 __________O___ -1 11.0000 114.300 2 5 308
1931282N11114 1931 44 WP MM NOT_NAMED 1931-10-09 12:00:00 NR 11.0968 114.170 main 437 437 __________P___ -1 11.0968 114.170 2 5 307
1931282N11114 1931 44 WP MM NOT_NAMED 1931-10-09 15:00:00 NR 11.2431 113.966 main 461 468 __________P___ -1 11.2431 113.966 2 5 305
1931282N11114 1931 44 WP MM NOT_NAMED 1931-10-09 18:00:00 NR 11.3926 113.745 main 476 452 __________P___ -1 11.3926 113.745 2 6 303
1931282N11114 1931 44 WP MM NOT_NAMED 1931-10-09 21:00:00 NR 11.5471 113.493 main 452 438 __________P___ -1 11.5471 113.493 2 6 302
1931282N11114 1931 44 WP MM NOT_NAMED 1931-10-09 22:00:00 NR 11.6000 113.400 main 438 414 __________O___ -1 11.6000 113.400 2 7 299
1931282N11114 1931 44 WP MM NOT_NAMED 1931-10-10 00:00:00 NR 11.7083 113.200 main 414 377 __________P___ -1 11.7083 113.200 2 7 298
1931282N11114 1931 44 WP MM NOT_NAMED 1931-10-10 03:00:00 NR 11.8770 112.870 main 377 330 __________P___ -1 11.8770 112.870 2 8 297
1931282N11114 1931 44 WP MM NOT_NAMED 1931-10-10 06:00:00 NR 12.0533 112.509 main 330 286 __________P___ -1 12.0533 112.509 2 8 296
1931282N11114 1931 44 WP MM NOT_NAMED 1931-10-10 09:00:00 NR 12.2370 112.129 main 286 273 __________P___ -1 12.2370 112.129 2 8 296
1931282N11114 1931 44 WP MM NOT_NAMED 1931-10-10 10:00:00 NR 12.3000 112.000 main 273 240 __________O___ -1 12.3000 112.000 2 8 296
1931282N11114 1931 44 WP MM NOT_NAMED 1931-10-10 12:00:00 NR 12.4223 111.745 main 240 195 __________P___ -1 12.4223 111.745 2 9 296
1931282N11114 1931 44 WP MM NOT_NAMED 1931-10-10 15:00:00 NR 12.6120 111.349 main 195 152 __________P___ -1 12.6120 111.349 2 9 297
1931282N11114 1931 44 WP MM NOT_NAMED 1931-10-10 18:00:00 NR 12.8120 110.944 main 152 109 __________P___ -1 12.8120 110.944 2 9 298
1931282N11114 1931 44 WP MM NOT_NAMED 1931-10-10 21:00:00 NR 13.0254 110.536 main 109 100 __________P___ -1 13.0254 110.536 2 9 299
1931282N11114 1931 44 WP MM NOT_NAMED 1931-10-10 22:00:00 NR 13.1000 110.400 main 100 78 __________O___ -1 13.1000 110.400 2 9 301
1931282N11114 1931 44 WP MM NOT_NAMED 1931-10-11 00:00:00 NR 13.2604 110.133 main 78 43 __________P___ -1 13.2604 110.133 2 9 303
1931282N11114 1931 44 WP MM NOT_NAMED 1931-10-11 03:00:00 NR 13.5137 109.733 main 43 0 __________P___ -1 13.5137 109.733 2 9 303
1931282N11114 1931 44 WP MM NOT_NAMED 1931-10-11 06:00:00 NR 13.7714 109.333 main 0 0 __________P___ -1 13.7714 109.333 2 9 303
1931282N11114 1931 44 WP MM NOT_NAMED 1931-10-11 09:00:00 NR 14.0208 108.933 main 0 0 __________P___ -1 14.0208 108.933 2 9 302
1931282N11114 1931 44 WP MM NOT_NAMED 1931-10-11 10:00:00 NR 14.1000 108.800 main 0 0 __________O___ -1 14.1000 108.800 2 9 301
1931282N11114 1931 44 WP MM NOT_NAMED 1931-10-11 12:00:00 NR 14.2505 108.533 main 0 0 __________P___ -1 14.2505 108.533 2 9 299
1931282N11114 1931 44 WP MM NOT_NAMED 1931-10-11 15:00:00 NR 14.4595 108.134 main 0 0 __________P___ -1 14.4595 108.134 2 9 297
1931282N11114 1931 44 WP MM NOT_NAMED 1931-10-11 18:00:00 NR 14.6536 107.734 main 0 0 __________P___ -1 14.6536 107.734 2 9 296
1931282N11114 1931 44 WP MM NOT_NAMED 1931-10-11 21:00:00 NR 14.8391 107.334 main 0 0 __________P___ -1 14.8391 107.334 2 9 296
1931282N11114 1931 44 WP MM NOT_NAMED 1931-10-11 22:00:00 NR 14.9000 107.200 main 0 __________O___ -1 14.9000 107.200 2 9 295

Digital Typhoon Data and Search

About IBTrACS Database

This database is a web-friendly format of International Best Track Archive for Climate Stewardship (IBTrACS), a global best track data archive curated by NOAA dating back to 1842.

Updated: 2021-10-21